createdAt,value
2018-09-26T00:00:05.850Z,0
2018-09-26T00:01:16.113Z,0
2018-09-26T00:02:25.976Z,0
2018-09-26T00:03:36.117Z,0
2018-09-26T00:04:46.018Z,0
2018-09-26T00:05:56.147Z,0
2018-09-26T00:07:06.266Z,0
2018-09-26T00:08:16.497Z,0
2018-09-26T00:09:26.697Z,0
2018-09-26T00:10:36.907Z,0
2018-09-26T00:11:47.277Z,0
2018-09-26T00:12:57.294Z,0
2018-09-26T00:14:07.511Z,0
2018-09-26T00:15:17.776Z,0
2018-09-26T00:16:27.971Z,0
2018-09-26T00:17:38.161Z,0
2018-09-26T00:18:48.404Z,0
2018-09-26T00:19:58.631Z,0
2018-09-26T00:21:08.779Z,0
2018-09-26T00:22:19.138Z,0
2018-09-26T00:23:29.338Z,0
2018-09-26T00:24:39.559Z,0
2018-09-26T00:25:49.448Z,0
2018-09-26T00:26:59.588Z,0
2018-09-26T00:28:09.735Z,0
2018-09-26T00:29:20.362Z,0
2018-09-26T00:30:30.762Z,0
2018-09-26T00:31:40.954Z,0
2018-09-26T00:32:51.438Z,0
2018-09-26T00:34:01.576Z,0
2018-09-26T00:35:11.494Z,0
2018-09-26T00:36:22.132Z,0
2018-09-26T00:37:32.644Z,0
2018-09-26T00:38:42.490Z,0
2018-09-26T00:39:52.598Z,0
2018-09-26T00:41:02.712Z,0
2018-09-26T00:42:12.879Z,0
2018-09-26T00:43:22.780Z,0
2018-09-26T00:44:32.924Z,0
2018-09-26T00:45:43.049Z,0
2018-09-26T00:46:53.251Z,0
2018-09-26T00:48:03.436Z,0
2018-09-26T00:49:13.611Z,0
2018-09-26T00:50:23.486Z,0
2018-09-26T00:51:33.678Z,0
2018-09-26T00:52:43.537Z,0
2018-09-26T00:53:53.705Z,0
2018-09-26T00:55:03.829Z,0
2018-09-26T00:56:14.095Z,0
2018-09-26T00:57:25.246Z,0
2018-09-26T00:58:35.520Z,0
2018-09-26T00:59:45.708Z,0
2018-09-26T01:00:55.828Z,0
2018-09-26T01:02:06.340Z,0
2018-09-26T01:03:16.445Z,0
2018-09-26T01:04:26.581Z,0
2018-09-26T01:05:36.476Z,0
2018-09-26T01:06:46.663Z,0
2018-09-26T01:07:56.885Z,0
2018-09-26T01:09:07.025Z,0
2018-09-26T01:10:17.229Z,0
2018-09-26T01:11:27.480Z,0
2018-09-26T01:12:37.708Z,0
2018-09-26T01:13:47.872Z,0
2018-09-26T01:14:57.735Z,0
2018-09-26T01:16:07.893Z,0
2018-09-26T01:17:17.753Z,0
2018-09-26T01:18:28.095Z,0
2018-09-26T01:19:38.214Z,0
2018-09-26T01:20:48.384Z,0
2018-09-26T01:21:58.541Z,0
2018-09-26T01:23:08.725Z,0
2018-09-26T01:24:18.968Z,0
2018-09-26T01:25:29.447Z,0
2018-09-26T01:26:39.557Z,0
2018-09-26T01:27:49.710Z,0
2018-09-26T01:28:59.888Z,0
2018-09-26T01:30:10.048Z,0
2018-09-26T01:31:19.956Z,0
2018-09-26T01:32:30.148Z,0
2018-09-26T01:33:39.947Z,0
2018-09-26T01:34:51.021Z,0
2018-09-26T01:36:01.207Z,0
2018-09-26T01:37:11.372Z,0
2018-09-26T01:38:21.608Z,0
2018-09-26T01:39:31.843Z,0
2018-09-26T01:40:41.996Z,0
2018-09-26T01:41:52.251Z,0
2018-09-26T01:43:01.985Z,0
2018-09-26T01:44:12.242Z,0
2018-09-26T01:45:22.368Z,0
2018-09-26T01:46:32.585Z,0
2018-09-26T01:47:42.800Z,0
2018-09-26T01:48:52.911Z,0
2018-09-26T01:50:03.349Z,0
2018-09-26T01:51:13.555Z,0
2018-09-26T01:52:23.428Z,0
2018-09-26T01:53:33.326Z,0
2018-09-26T01:54:43.475Z,0
2018-09-26T01:55:53.591Z,0
2018-09-26T01:57:03.442Z,0
2018-09-26T01:58:13.561Z,0
2018-09-26T01:59:23.690Z,0
2018-09-26T02:00:33.846Z,0
2018-09-26T02:01:44.077Z,0
2018-09-26T02:02:54.199Z,0
2018-09-26T02:04:04.317Z,0
2018-09-26T02:05:14.693Z,0
2018-09-26T02:06:24.895Z,0
2018-09-26T02:07:35.059Z,0
2018-09-26T02:08:45.172Z,0
2018-09-26T02:09:55.303Z,0
2018-09-26T02:11:05.428Z,0
2018-09-26T02:12:15.648Z,0
2018-09-26T02:13:25.786Z,0
2018-09-26T02:14:35.893Z,0
2018-09-26T02:15:46.162Z,0
2018-09-26T02:16:56.519Z,0
2018-09-26T02:18:06.696Z,0
2018-09-26T02:19:16.886Z,0
2018-09-26T02:20:27.101Z,0
2018-09-26T02:21:37.271Z,0
2018-09-26T02:22:47.364Z,0
2018-09-26T02:23:57.629Z,0
2018-09-26T02:25:08.067Z,0
2018-09-26T02:26:18.288Z,0
2018-09-26T02:27:28.463Z,0
2018-09-26T02:28:38.647Z,0
2018-09-26T02:29:48.852Z,0
2018-09-26T02:30:59.035Z,0
2018-09-26T02:32:09.208Z,0
2018-09-26T02:33:19.344Z,0
2018-09-26T02:34:29.478Z,0
2018-09-26T02:35:39.595Z,0
2018-09-26T02:36:49.096Z,0
2018-09-26T02:37:59.062Z,0
2018-09-26T02:39:09.199Z,0
2018-09-26T02:40:19.458Z,0
2018-09-26T02:41:29.602Z,0
2018-09-26T02:42:39.876Z,0
2018-09-26T02:43:49.942Z,0
2018-09-26T02:45:00.074Z,0
2018-09-26T02:46:10.232Z,0
2018-09-26T02:47:20.218Z,0
2018-09-26T02:48:30.276Z,0
2018-09-26T02:49:40.444Z,0
2018-09-26T02:50:50.565Z,0
2018-09-26T02:52:00.741Z,0
2018-09-26T02:53:10.875Z,0
2018-09-26T02:54:20.790Z,0
2018-09-26T02:55:30.998Z,0
2018-09-26T02:56:41.133Z,0
2018-09-26T02:57:51.460Z,0
2018-09-26T02:59:01.651Z,0
2018-09-26T03:00:11.823Z,0
2018-09-26T03:01:22.052Z,0
2018-09-26T03:02:32.374Z,0
2018-09-26T03:03:42.117Z,0
2018-09-26T03:04:52.236Z,0
2018-09-26T03:06:02.450Z,0
2018-09-26T03:07:12.670Z,0
2018-09-26T03:08:23.029Z,0
2018-09-26T03:09:33.161Z,0
2018-09-26T03:10:43.405Z,0
2018-09-26T03:11:53.563Z,0
2018-09-26T03:13:03.777Z,0
2018-09-26T03:14:14.087Z,0
2018-09-26T03:15:24.218Z,0
2018-09-26T03:16:34.459Z,0
2018-09-26T03:17:44.886Z,0
2018-09-26T03:18:54.897Z,0
2018-09-26T03:20:05.157Z,0
2018-09-26T03:21:15.291Z,0
2018-09-26T03:22:25.590Z,0
2018-09-26T03:23:35.717Z,0
2018-09-26T03:24:45.996Z,0
2018-09-26T03:25:56.187Z,0
2018-09-26T03:27:06.627Z,0
2018-09-26T03:28:16.613Z,0
2018-09-26T03:29:26.737Z,0
2018-09-26T03:30:36.866Z,0
2018-09-26T03:31:46.997Z,0
2018-09-26T03:32:57.168Z,0
2018-09-26T03:34:06.672Z,0
2018-09-26T03:35:16.889Z,0
2018-09-26T03:36:27.009Z,0
2018-09-26T03:37:37.417Z,0
2018-09-26T03:38:47.695Z,0
2018-09-26T03:39:57.842Z,0
2018-09-26T03:41:07.714Z,0
2018-09-26T03:42:17.898Z,0
2018-09-26T03:43:28.114Z,0
2018-09-26T03:44:38.283Z,0
2018-09-26T03:45:48.489Z,0
2018-09-26T03:46:58.693Z,0
2018-09-26T03:48:08.905Z,0
2018-09-26T03:49:18.822Z,0
2018-09-26T03:50:28.926Z,0
2018-09-26T03:51:39.104Z,0
2018-09-26T03:52:49.333Z,0
2018-09-26T03:53:59.590Z,0
2018-09-26T03:55:09.538Z,0
2018-09-26T03:56:19.707Z,0
2018-09-26T03:57:29.816Z,0
2018-09-26T03:58:39.943Z,0
2018-09-26T03:59:49.822Z,0
2018-09-26T04:00:59.971Z,0
2018-09-26T04:02:10.170Z,0
2018-09-26T04:03:20.153Z,0
2018-09-26T04:04:30.299Z,0
2018-09-26T04:05:40.437Z,0
2018-09-26T04:06:50.589Z,0
2018-09-26T04:08:00.750Z,0
2018-09-26T04:09:10.949Z,0
2018-09-26T04:10:21.148Z,0
2018-09-26T04:11:31.045Z,0
2018-09-26T04:12:41.644Z,0
2018-09-26T04:13:52.122Z,0
2018-09-26T04:15:02.161Z,0
2018-09-26T04:16:12.323Z,0
2018-09-26T04:17:22.568Z,0
2018-09-26T04:18:32.776Z,0
2018-09-26T04:19:42.939Z,0
2018-09-26T04:20:53.169Z,0
2018-09-26T04:22:03.551Z,0
2018-09-26T04:23:13.693Z,0
2018-09-26T04:24:23.862Z,0
2018-09-26T04:25:34.029Z,0
2018-09-26T04:26:45.039Z,0
2018-09-26T04:27:56.023Z,0
2018-09-26T04:29:06.276Z,0
2018-09-26T04:30:16.589Z,0
2018-09-26T04:31:26.881Z,0
2018-09-26T04:32:37.466Z,0
2018-09-26T04:33:48.638Z,0
2018-09-26T04:34:58.626Z,0
2018-09-26T04:36:08.740Z,0
2018-09-26T04:37:18.870Z,4
2018-09-26T04:38:29.207Z,0
2018-09-26T04:39:39.550Z,4
2018-09-26T04:40:49.726Z,4
2018-09-26T04:41:59.871Z,4
2018-09-26T04:43:09.819Z,4
2018-09-26T04:44:20.162Z,8
2018-09-26T04:45:30.351Z,8
2018-09-26T04:46:40.603Z,12
2018-09-26T04:47:50.787Z,12
2018-09-26T04:49:00.941Z,16
2018-09-26T04:50:11.118Z,16
2018-09-26T04:51:21.009Z,20
2018-09-26T04:52:31.146Z,24
2018-09-26T04:53:41.344Z,28
2018-09-26T04:54:51.511Z,36
2018-09-26T04:56:01.649Z,40
2018-09-26T04:57:11.741Z,44
2018-09-26T04:58:22.014Z,52
2018-09-26T04:59:32.208Z,64
2018-09-26T05:00:42.324Z,68
2018-09-26T05:01:52.238Z,80
2018-09-26T05:03:02.441Z,88
2018-09-26T05:04:12.555Z,100
2018-09-26T05:05:22.675Z,108
2018-09-26T05:06:32.827Z,120
2018-09-26T05:07:43.016Z,136
2018-09-26T05:08:52.962Z,148
2018-09-26T05:10:03.146Z,160
2018-09-26T05:11:13.333Z,176
2018-09-26T05:12:23.477Z,192
2018-09-26T05:13:33.737Z,204
2018-09-26T05:14:44.190Z,224
2018-09-26T05:15:54.472Z,244
2018-09-26T05:17:04.671Z,260
2018-09-26T05:18:15.048Z,284
2018-09-26T05:19:25.308Z,308
2018-09-26T05:20:35.444Z,328
2018-09-26T05:21:45.588Z,356
2018-09-26T05:22:56.137Z,384
2018-09-26T05:24:06.325Z,412
2018-09-26T05:25:16.462Z,444
2018-09-26T05:26:26.621Z,472
2018-09-26T05:27:36.844Z,500
2018-09-26T05:28:47.024Z,528
2018-09-26T05:29:57.467Z,552
2018-09-26T05:31:09.457Z,576
2018-09-26T05:32:19.579Z,604
2018-09-26T05:33:29.708Z,632
2018-09-26T05:34:39.841Z,648
2018-09-26T05:35:49.985Z,664
2018-09-26T05:37:00.153Z,700
2018-09-26T05:38:09.971Z,740
2018-09-26T05:39:19.857Z,784
2018-09-26T05:40:29.972Z,800
2018-09-26T05:41:40.287Z,808
2018-09-26T05:42:50.639Z,828
2018-09-26T05:44:00.988Z,848
2018-09-26T05:45:11.149Z,872
2018-09-26T05:46:21.537Z,904
2018-09-26T05:47:31.711Z,924
2018-09-26T05:48:41.890Z,948
2018-09-26T05:49:52.113Z,964
2018-09-26T05:51:02.316Z,996
2018-09-26T05:52:12.563Z,1028
2018-09-26T05:53:22.621Z,1056
2018-09-26T05:54:33.031Z,1092
2018-09-26T05:55:43.190Z,1132
2018-09-26T05:56:53.047Z,1168
2018-09-26T05:58:02.994Z,1220
2018-09-26T05:59:13.116Z,1268
2018-09-26T06:00:23.001Z,1284
2018-09-26T06:01:33.338Z,1300
2018-09-26T06:02:43.196Z,1316
2018-09-26T06:03:53.364Z,1340
2018-09-26T06:05:03.486Z,1380
2018-09-26T06:06:13.680Z,1436
2018-09-26T06:07:23.660Z,1524
2018-09-26T06:08:33.795Z,1616
2018-09-26T06:09:43.962Z,1708
2018-09-26T06:10:53.843Z,1792
2018-09-26T06:12:03.972Z,1824
2018-09-26T06:13:14.240Z,1868
2018-09-26T06:14:24.401Z,1944
2018-09-26T06:15:34.443Z,1992
2018-09-26T06:16:44.362Z,1988
2018-09-26T06:17:54.501Z,1992
2018-09-26T06:19:04.860Z,2016
2018-09-26T06:20:16.039Z,2016
2018-09-26T06:21:26.160Z,2052
2018-09-26T06:22:36.022Z,2124
2018-09-26T06:23:46.144Z,2216
2018-09-26T06:24:56.419Z,2308
2018-09-26T06:26:06.604Z,2384
2018-09-26T06:27:17.693Z,2472
2018-09-26T06:28:27.963Z,2576
2018-09-26T06:29:37.868Z,2676
2018-09-26T06:30:47.990Z,2724
2018-09-26T06:31:58.411Z,2800
2018-09-26T06:33:08.547Z,2860
2018-09-26T06:34:18.669Z,2964
2018-09-26T06:35:28.540Z,3080
2018-09-26T06:36:38.482Z,3176
2018-09-26T06:37:48.696Z,3228
2018-09-26T06:38:58.910Z,3240
2018-09-26T06:40:09.121Z,3228
2018-09-26T06:41:19.298Z,3204
2018-09-26T06:42:29.537Z,3188
2018-09-26T06:43:39.670Z,3196
2018-09-26T06:44:49.788Z,3168
2018-09-26T06:46:00.116Z,3152
2018-09-26T06:47:10.243Z,3140
2018-09-26T06:48:20.364Z,3120
2018-09-26T06:49:30.509Z,3060
2018-09-26T06:50:40.714Z,3076
2018-09-26T06:51:50.871Z,3156
2018-09-26T06:53:01.050Z,3280
2018-09-26T06:54:11.488Z,3400
2018-09-26T06:55:21.378Z,3460
2018-09-26T06:56:31.499Z,3488
2018-09-26T06:57:41.646Z,3556
2018-09-26T06:58:51.768Z,3672
2018-09-26T07:00:01.948Z,3752
2018-09-26T07:01:12.289Z,3836
2018-09-26T07:02:22.472Z,3932
2018-09-26T07:03:32.625Z,4040
2018-09-26T07:04:42.902Z,4236
2018-09-26T07:05:53.115Z,4356
2018-09-26T07:07:03.536Z,4392
2018-09-26T07:08:13.662Z,4568
2018-09-26T07:09:23.826Z,4616
2018-09-26T07:10:34.028Z,4688
2018-09-26T07:11:44.207Z,4752
2018-09-26T07:12:54.443Z,4856
2018-09-26T07:14:04.764Z,4824
2018-09-26T07:15:14.925Z,4888
2018-09-26T07:16:25.093Z,4972
2018-09-26T07:17:34.982Z,5064
2018-09-26T07:18:45.122Z,5148
2018-09-26T07:19:55.258Z,5204
2018-09-26T07:21:05.423Z,5324
2018-09-26T07:22:15.653Z,5496
2018-09-26T07:23:25.854Z,5592
2018-09-26T07:24:36.064Z,5712
2018-09-26T07:25:46.171Z,5724
2018-09-26T07:26:56.391Z,5772
2018-09-26T07:28:06.524Z,5928
2018-09-26T07:29:16.647Z,6132
2018-09-26T07:30:26.868Z,6232
2018-09-26T07:31:37.514Z,6424
2018-09-26T07:32:47.708Z,6512
2018-09-26T07:33:57.856Z,6660
2018-09-26T07:35:08.029Z,6996
2018-09-26T07:36:18.144Z,7136
2018-09-26T07:37:28.307Z,7312
2018-09-26T07:38:38.848Z,7532
2018-09-26T07:39:48.716Z,7768
2018-09-26T07:40:58.892Z,8116
2018-09-26T07:42:09.044Z,8836
2018-09-26T07:43:19.225Z,12060
2018-09-26T07:44:29.385Z,17504
2018-09-26T07:45:40.263Z,19168
2018-09-26T07:46:50.524Z,20320
2018-09-26T07:48:00.422Z,21216
2018-09-26T07:49:10.640Z,21408
2018-09-26T07:50:20.542Z,21568
2018-09-26T07:51:30.502Z,23520
2018-09-26T07:52:40.628Z,24224
2018-09-26T07:53:50.762Z,25888
2018-09-26T07:55:00.646Z,27648
2018-09-26T07:56:10.842Z,28768
2018-09-26T07:57:20.973Z,29376
2018-09-26T07:58:31.160Z,29664
2018-09-26T07:59:41.070Z,31232
2018-09-26T08:00:51.216Z,31488
2018-09-26T08:02:01.606Z,31776
2018-09-26T08:03:11.774Z,29920
2018-09-26T08:04:21.931Z,28832
2018-09-26T08:05:32.066Z,31328
2018-09-26T08:06:42.228Z,32064
2018-09-26T08:07:52.119Z,32896
2018-09-26T08:09:02.247Z,33504
2018-09-26T08:10:12.441Z,32608
2018-09-26T08:11:23.228Z,31040
2018-09-26T08:12:33.666Z,31072
2018-09-26T08:13:43.799Z,31840
2018-09-26T08:14:53.950Z,30880
2018-09-26T08:16:03.810Z,32000
2018-09-26T08:17:14.075Z,31584
2018-09-26T08:18:24.565Z,31456
2018-09-26T08:19:34.764Z,28768
2018-09-26T08:20:44.648Z,29120
2018-09-26T08:21:54.790Z,27648
2018-09-26T08:23:04.968Z,27456
2018-09-26T08:24:16.650Z,26880
2018-09-26T08:25:26.965Z,27200
2018-09-26T08:26:37.106Z,26176
2018-09-26T08:27:46.911Z,23936
2018-09-26T08:28:57.040Z,23040
2018-09-26T08:30:07.600Z,22656
2018-09-26T08:31:17.805Z,22720
2018-09-26T08:32:27.961Z,23648
2018-09-26T08:33:37.847Z,24256
2018-09-26T08:34:47.999Z,24544
2018-09-26T08:35:58.285Z,23680
2018-09-26T08:37:08.488Z,24256
2018-09-26T08:38:18.365Z,27392
2018-09-26T08:39:28.531Z,28960
2018-09-26T08:40:38.692Z,31008
2018-09-26T08:41:48.941Z,30976
2018-09-26T08:42:59.110Z,32576
2018-09-26T08:44:09.294Z,32704
2018-09-26T08:45:19.461Z,29920
2018-09-26T08:46:29.727Z,27936
2018-09-26T08:47:39.925Z,26304
2018-09-26T08:48:51.390Z,24160
2018-09-26T08:50:01.543Z,21248
2018-09-26T08:51:11.680Z,18560
2018-09-26T08:52:21.822Z,17120
2018-09-26T08:53:31.599Z,16704
2018-09-26T08:54:41.806Z,16672
2018-09-26T08:55:52.073Z,16160
2018-09-26T08:57:03.220Z,15264
2018-09-26T08:58:13.471Z,14496
2018-09-26T08:59:23.629Z,14208
2018-09-26T09:00:33.980Z,14144
2018-09-26T09:01:44.221Z,14688
2018-09-26T09:02:54.403Z,15136
2018-09-26T09:04:04.312Z,15296
2018-09-26T09:05:14.512Z,15040
2018-09-26T09:06:25.113Z,15680
2018-09-26T09:07:35.280Z,17920
2018-09-26T09:08:45.451Z,21472
2018-09-26T09:09:55.628Z,21280
2018-09-26T09:11:05.757Z,25696
2018-09-26T09:12:15.911Z,24544
2018-09-26T09:13:26.028Z,23328
2018-09-26T09:14:36.840Z,29408
2018-09-26T09:15:46.847Z,32192
2018-09-26T09:16:57.003Z,35296
2018-09-26T09:18:07.336Z,37280
2018-09-26T09:19:17.593Z,34368
2018-09-26T09:20:28.243Z,31104
2018-09-26T09:21:38.365Z,18560
2018-09-26T09:22:48.560Z,33504
2018-09-26T09:23:58.804Z,28576
2018-09-26T09:25:09.003Z,27392
2018-09-26T09:26:19.412Z,30368
2018-09-26T09:27:29.840Z,31328
2018-09-26T09:28:40.393Z,29856
2018-09-26T09:29:50.563Z,29824
2018-09-26T09:31:01.677Z,31616
2018-09-26T09:32:11.971Z,37120
2018-09-26T09:33:22.141Z,36000
2018-09-26T09:34:32.482Z,37056
2018-09-26T09:35:42.606Z,35168
2018-09-26T09:36:53.012Z,36928
2018-09-26T09:38:04.159Z,39456
2018-09-26T09:39:14.342Z,35712
2018-09-26T09:40:24.471Z,36512
2018-09-26T09:41:34.055Z,35616
2018-09-26T09:42:43.923Z,33920
2018-09-26T09:43:54.196Z,37152
2018-09-26T09:45:04.464Z,38240
2018-09-26T09:46:14.414Z,38304
2018-09-26T09:47:24.460Z,29760
2018-09-26T09:48:34.663Z,36480
2018-09-26T09:49:44.807Z,36096
2018-09-26T09:50:54.962Z,36000
2018-09-26T09:52:05.239Z,36768
2018-09-26T09:53:15.152Z,30336
2018-09-26T09:54:25.581Z,38816
2018-09-26T09:55:35.724Z,44416
2018-09-26T09:56:45.896Z,43264
2018-09-26T09:57:56.137Z,45120
2018-09-26T09:59:06.283Z,43328
2018-09-26T10:00:16.511Z,43840
2018-09-26T10:01:26.702Z,46016
2018-09-26T10:02:37.202Z,45280
2018-09-26T10:03:47.355Z,46368
2018-09-26T10:04:57.600Z,42944
2018-09-26T10:06:07.382Z,41728
2018-09-26T10:07:17.527Z,47712
2018-09-26T10:08:28.152Z,50144
2018-09-26T10:09:38.360Z,47776
2018-09-26T10:10:48.504Z,46688
2018-09-26T10:11:58.654Z,49792
2018-09-26T10:13:08.535Z,46944
2018-09-26T10:14:19.086Z,45120
2018-09-26T10:15:29.732Z,43968
2018-09-26T10:16:39.879Z,40064
2018-09-26T10:17:50.205Z,44320
2018-09-26T10:19:00.388Z,47488
2018-09-26T10:20:10.630Z,44768
2018-09-26T10:21:20.940Z,46208
2018-09-26T10:22:31.094Z,47936
2018-09-26T10:23:41.062Z,44704
2018-09-26T10:24:52.214Z,51680
2018-09-26T10:26:02.464Z,49824
2018-09-26T10:27:13.785Z,43968
2018-09-26T10:28:23.924Z,44352
2018-09-26T10:29:34.124Z,44800
2018-09-26T10:30:44.373Z,43872
2018-09-26T10:31:54.524Z,43200
2018-09-26T10:33:04.314Z,42976
2018-09-26T10:34:14.585Z,44416
2018-09-26T10:35:24.596Z,44288
2018-09-26T10:36:34.483Z,43360
2018-09-26T10:37:44.710Z,38656
2018-09-26T10:38:54.501Z,41760
2018-09-26T10:40:04.766Z,41792
2018-09-26T10:41:14.981Z,37408
2018-09-26T10:42:24.939Z,41824
2018-09-26T10:43:35.148Z,39264
2018-09-26T10:44:45.309Z,30816
2018-09-26T10:45:55.484Z,26112
2018-09-26T10:47:05.669Z,31392
2018-09-26T10:48:15.857Z,35392
2018-09-26T10:49:26.007Z,33792
2018-09-26T10:50:36.174Z,32608
2018-09-26T10:51:46.397Z,31392
2018-09-26T10:52:56.350Z,29120
2018-09-26T10:54:06.559Z,28128
2018-09-26T10:55:16.700Z,24832
2018-09-26T10:56:27.513Z,23904
2018-09-26T10:57:38.042Z,22560
2018-09-26T10:58:48.222Z,20000
2018-09-26T10:59:58.411Z,17440
2018-09-26T11:01:08.682Z,17856
2018-09-26T11:02:19.040Z,17760
2018-09-26T11:03:29.315Z,20416
2018-09-26T11:04:39.450Z,22720
2018-09-26T11:05:49.612Z,27712
2018-09-26T11:06:59.803Z,28960
2018-09-26T11:08:09.813Z,23232
2018-09-26T11:09:19.797Z,19136
2018-09-26T11:10:30.380Z,16064
2018-09-26T11:11:40.162Z,14112
2018-09-26T11:12:50.980Z,14080
2018-09-26T11:14:01.190Z,14016
2018-09-26T11:15:11.806Z,14624
2018-09-26T11:16:21.982Z,15520
2018-09-26T11:17:31.930Z,16000
2018-09-26T11:18:42.296Z,16704
2018-09-26T11:19:52.473Z,18368
2018-09-26T11:21:03.347Z,25440
2018-09-26T11:22:13.711Z,36832
2018-09-26T11:23:24.091Z,37312
2018-09-26T11:24:34.004Z,40448
2018-09-26T11:25:44.246Z,38944
2018-09-26T11:26:54.186Z,24640
2018-09-26T11:28:03.849Z,26240
2018-09-26T11:29:13.737Z,22432
2018-09-26T11:30:23.861Z,30784
2018-09-26T11:31:34.042Z,33568
2018-09-26T11:32:44.220Z,32288
2018-09-26T11:33:54.782Z,28288
2018-09-26T11:35:05.158Z,37440
2018-09-26T11:36:15.414Z,37216
2018-09-26T11:37:25.590Z,44384
2018-09-26T11:38:35.756Z,48256
2018-09-26T11:39:46.048Z,48576
2018-09-26T11:40:56.205Z,49952
2018-09-26T11:42:06.455Z,52256
2018-09-26T11:43:16.840Z,50208
2018-09-26T11:44:27.465Z,47232
2018-09-26T11:45:37.958Z,46944
2018-09-26T11:46:48.103Z,42496
2018-09-26T11:47:58.241Z,49120
2018-09-26T11:49:08.409Z,45600
2018-09-26T11:50:18.873Z,46560
2018-09-26T11:51:28.877Z,47296
2018-09-26T11:52:39.088Z,47936
2018-09-26T11:53:48.721Z,48224
2018-09-26T11:54:59.009Z,52832
2018-09-26T11:56:08.988Z,53056
2018-09-26T11:57:18.880Z,44320
2018-09-26T11:58:29.460Z,39616
2018-09-26T11:59:39.765Z,34048
2018-09-26T12:00:50.049Z,37568
2018-09-26T12:02:00.223Z,32608
2018-09-26T12:03:10.480Z,33120
2018-09-26T12:04:20.976Z,34688
2018-09-26T12:05:31.463Z,33344
2018-09-26T12:06:41.592Z,27616
2018-09-26T12:07:51.942Z,34432
2018-09-26T12:09:02.139Z,36032
2018-09-26T12:10:12.500Z,46848
2018-09-26T12:11:22.774Z,42528
2018-09-26T12:12:33.153Z,42272
2018-09-26T12:13:43.655Z,45568
2018-09-26T12:14:53.617Z,44672
2018-09-26T12:16:03.839Z,38816
2018-09-26T12:17:14.175Z,34976
2018-09-26T12:18:24.681Z,38848
2018-09-26T12:19:35.293Z,38496
2018-09-26T12:20:45.465Z,40640
2018-09-26T12:21:56.230Z,38880
2018-09-26T12:23:06.226Z,39744
2018-09-26T12:24:16.909Z,35008
2018-09-26T12:25:27.470Z,35680
2018-09-26T12:26:37.887Z,37440
2018-09-26T12:27:47.972Z,38400
2018-09-26T12:28:58.310Z,37088
2018-09-26T12:30:09.711Z,32480
2018-09-26T12:31:19.901Z,32416
2018-09-26T12:32:30.048Z,35648
2018-09-26T12:33:40.508Z,40608
2018-09-26T12:34:50.086Z,38912
2018-09-26T12:36:00.575Z,30304
2018-09-26T12:37:10.831Z,25600
2018-09-26T12:38:21.108Z,26880
2018-09-26T12:39:31.340Z,28672
2018-09-26T12:40:41.533Z,28384
2018-09-26T12:41:51.768Z,22976
2018-09-26T12:43:02.091Z,25600
2018-09-26T12:44:12.228Z,32064
2018-09-26T12:45:54.520Z,36896
2018-09-26T12:47:04.168Z,32608
2018-09-26T12:48:14.917Z,22816
2018-09-26T12:49:24.916Z,22432
2018-09-26T12:50:34.920Z,24096
2018-09-26T12:51:45.080Z,26880
2018-09-26T12:52:55.235Z,31744
2018-09-26T12:54:06.455Z,34848
2018-09-26T12:55:16.833Z,29504
2018-09-26T12:56:26.977Z,30080
2018-09-26T12:57:37.149Z,33952
2018-09-26T12:58:47.372Z,33696
2018-09-26T12:59:58.353Z,36544
2018-09-26T13:01:08.277Z,38272
2018-09-26T13:02:18.739Z,40768
2018-09-26T13:03:29.062Z,40416
2018-09-26T13:04:39.230Z,39744
2018-09-26T13:05:49.645Z,43392
2018-09-26T13:06:59.486Z,42464
2018-09-26T13:08:09.970Z,41088
2018-09-26T13:09:20.273Z,40160
2018-09-26T13:10:30.632Z,41568
2018-09-26T13:11:40.354Z,38400
2018-09-26T13:12:50.544Z,35008
2018-09-26T13:14:01.011Z,33632
2018-09-26T13:15:11.197Z,31584
2018-09-26T13:16:21.208Z,28064
2018-09-26T13:17:31.123Z,31712
2018-09-26T13:18:41.054Z,31648
2018-09-26T13:19:51.196Z,32128
2018-09-26T13:21:01.362Z,29376
2018-09-26T13:22:11.822Z,27040
2018-09-26T13:23:21.780Z,33184
2018-09-26T13:24:32.119Z,33568
2018-09-26T13:25:42.497Z,25248
2018-09-26T13:26:52.786Z,21024
2018-09-26T13:28:02.979Z,38432
2018-09-26T13:29:13.168Z,35712
2018-09-26T13:30:23.127Z,28864
2018-09-26T13:31:33.461Z,28992
2018-09-26T13:32:43.597Z,27904
2018-09-26T13:33:53.386Z,45280
2018-09-26T13:35:03.773Z,41440
2018-09-26T13:36:13.866Z,34528
2018-09-26T13:37:24.302Z,33216
2018-09-26T13:38:34.492Z,37280
2018-09-26T13:39:44.800Z,39328
2018-09-26T13:40:55.129Z,42304
2018-09-26T13:42:05.344Z,41792
2018-09-26T13:43:15.592Z,40192
2018-09-26T13:44:26.095Z,40384
2018-09-26T13:45:36.127Z,42272
2018-09-26T13:46:47.030Z,41312
2018-09-26T13:47:57.462Z,37888
2018-09-26T13:49:07.615Z,38432
2018-09-26T13:50:17.716Z,39072
2018-09-26T13:51:28.186Z,38016
2018-09-26T13:52:38.357Z,38208
2018-09-26T13:53:49.916Z,36736
2018-09-26T13:55:00.110Z,35008
2018-09-26T13:56:09.952Z,37184
2018-09-26T13:57:19.917Z,39744
2018-09-26T13:58:30.383Z,38560
2018-09-26T13:59:40.796Z,36960
2018-09-26T14:00:50.459Z,35264
2018-09-26T14:02:00.077Z,35264
2018-09-26T14:03:10.252Z,34784
2018-09-26T14:04:20.636Z,33760
2018-09-26T14:05:31.943Z,33536
2018-09-26T14:06:41.907Z,32480
2018-09-26T14:07:52.105Z,33184
2018-09-26T14:09:02.296Z,35168
2018-09-26T14:10:12.543Z,33344
2018-09-26T14:11:22.468Z,32224
2018-09-26T14:12:33.127Z,32320
2018-09-26T14:13:43.241Z,29536
2018-09-26T14:14:53.456Z,28448
2018-09-26T14:16:03.719Z,25664
2018-09-26T14:17:14.237Z,24384
2018-09-26T14:18:25.057Z,25024
2018-09-26T14:19:35.493Z,23680
2018-09-26T14:20:45.686Z,19392
2018-09-26T14:21:55.840Z,11744
2018-09-26T14:23:06.601Z,15296
2018-09-26T14:24:17.000Z,12780
2018-09-26T14:25:27.203Z,15872
2018-09-26T14:26:37.351Z,16992
2018-09-26T14:27:47.519Z,17824
2018-09-26T14:28:57.666Z,17184
2018-09-26T14:30:07.862Z,19456
2018-09-26T14:31:18.492Z,15872
2018-09-26T14:32:28.970Z,18656
2018-09-26T14:33:38.958Z,16640
2018-09-26T14:34:49.256Z,18432
2018-09-26T14:35:59.437Z,14432
2018-09-26T14:37:10.629Z,18784
2018-09-26T14:38:21.205Z,19456
2018-09-26T14:39:32.320Z,20672
2018-09-26T14:40:43.687Z,22432
2018-09-26T14:41:53.870Z,22944
2018-09-26T14:43:04.093Z,23232
2018-09-26T14:44:14.443Z,22464
2018-09-26T14:45:25.110Z,22976
2018-09-26T14:46:35.629Z,20672
2018-09-26T14:47:45.905Z,17824
2018-09-26T14:48:56.153Z,18688
2018-09-26T14:50:06.105Z,21792
2018-09-26T14:51:16.295Z,20160
2018-09-26T14:52:26.480Z,20768
2018-09-26T14:53:36.668Z,23136
2018-09-26T14:54:46.955Z,19712
2018-09-26T14:55:57.100Z,16416
2018-09-26T14:57:07.303Z,13312
2018-09-26T14:58:18.075Z,7928
2018-09-26T14:59:27.891Z,7668
2018-09-26T15:00:38.060Z,7148
2018-09-26T15:01:48.187Z,6528
2018-09-26T15:02:58.379Z,6556
2018-09-26T15:04:08.872Z,6292
2018-09-26T15:05:19.257Z,6632
2018-09-26T15:06:29.518Z,8420
2018-09-26T15:07:39.683Z,6912
2018-09-26T15:08:50.384Z,12380
2018-09-26T15:10:00.728Z,18720
2018-09-26T15:11:10.892Z,20768
2018-09-26T15:12:21.501Z,21024
2018-09-26T15:13:31.746Z,21312
2018-09-26T15:14:42.050Z,20480
2018-09-26T15:15:52.409Z,19488
2018-09-26T15:17:02.568Z,18432
2018-09-26T15:18:12.860Z,19072
2018-09-26T15:19:23.089Z,18560
2018-09-26T15:20:33.797Z,17248
2018-09-26T15:21:44.062Z,15296
2018-09-26T15:22:54.061Z,17024
2018-09-26T15:24:04.355Z,17664
2018-09-26T15:25:14.557Z,17856
2018-09-26T15:26:25.311Z,18336
2018-09-26T15:27:35.936Z,16576
2018-09-26T15:28:46.401Z,14688
2018-09-26T15:29:56.389Z,13600
2018-09-26T15:31:06.647Z,11804
2018-09-26T15:32:17.099Z,11192
2018-09-26T15:33:27.136Z,11376
2018-09-26T15:34:37.066Z,12288
2018-09-26T15:35:47.268Z,12224
2018-09-26T15:36:57.461Z,11956
2018-09-26T15:38:07.701Z,10928
2018-09-26T15:39:17.939Z,9124
2018-09-26T15:40:28.589Z,8020
2018-09-26T15:41:39.339Z,5964
2018-09-26T15:42:49.845Z,4872
2018-09-26T15:44:00.163Z,3652
2018-09-26T15:45:10.071Z,3332
2018-09-26T15:46:20.481Z,3136
2018-09-26T15:47:30.894Z,3100
2018-09-26T15:48:41.413Z,2904
2018-09-26T15:49:51.856Z,2872
2018-09-26T15:51:02.051Z,2824